Time;durP1;ratioP1;P1;durP2;ratioP2;P2;SDS_P1;SDS_P2;PMS_P1;PMS_P2;Temp;Humidity;BMP_temperature;BMP_pressure;BME280_temperature;BME280_humidity;BME280_pressure;Samples;Min_cycle;Max_cycle;Signal;HPM_P1;HPM_P2
2023/10/22 00:02:02;;;;;;;21.70;18.20;;;;;;;15.16;100.00;99103.01;177786;1264;46020;-77
2023/10/22 00:06:05;;;;;;;22.40;17.50;;;;;;;15.03;100.00;99091.83;178109;1265;46019;-77
2023/10/22 00:10:09;;;;;;;22.10;18.70;;;;;;;14.97;100.00;99085.24;178948;1264;46010;-76
2023/10/22 00:14:12;;;;;;;24.40;16.20;;;;;;;14.92;100.00;99093.19;178472;1265;45972;-77
2023/10/22 00:18:14;;;;;;;26.70;18.00;;;;;;;14.82;100.00;99102.19;178776;1264;58048;-77
2023/10/22 00:22:18;;;;;;;22.60;17.60;;;;;;;14.81;100.00;99097.68;177207;1263;46192;-77
2023/10/22 00:26:21;;;;;;;20.00;17.80;;;;;;;14.87;100.00;99089.79;177129;1264;46151;-77
2023/10/22 00:30:24;;;;;;;27.50;18.60;;;;;;;14.97;100.00;99084.83;177511;1265;46499;-77
2023/10/22 00:34:26;;;;;;;23.70;17.80;;;;;;;15.06;100.00;99084.16;176210;1266;46123;-77
2023/10/22 00:38:31;;;;;;;26.30;17.70;;;;;;;15.10;100.00;99083.55;176819;1264;58465;-78
2023/10/22 00:42:34;;;;;;;24.30;19.00;;;;;;;15.15;100.00;99082.80;176744;1264;46115;-77
2023/10/22 00:46:38;;;;;;;23.00;16.10;;;;;;;15.03;100.00;99077.08;180193;1264;44701;-78
2023/10/22 00:50:41;;;;;;;24.70;19.20;;;;;;;14.88;100.00;99079.91;178107;1265;45944;-77
2023/10/22 00:54:46;;;;;;;21.30;16.20;;;;;;;14.86;100.00;99078.90;177079;1264;46147;-78
2023/10/22 00:58:49;;;;;;;22.10;18.00;;;;;;;14.89;100.00;99085.81;177440;1265;58293;-78
2023/10/22 01:02:52;;;;;;;21.20;16.90;;;;;;;14.94;100.00;99083.96;178692;1264;45925;-77
2023/10/22 01:06:56;;;;;;;25.60;17.90;;;;;;;14.91;100.00;99079.14;179122;1265;46004;-77
2023/10/22 01:11:05;;;;;;;21.10;17.40;;;;;;;14.93;100.00;99089.09;178005;1265;46008;-77
2023/10/22 01:15:08;;;;;;;28.10;20.20;;;;;;;14.95;100.00;99087.60;178371;1264;44593;-77
2023/10/22 01:19:11;;;;;;;23.60;18.30;;;;;;;14.95;100.00;99075.72;177379;1265;59595;-77
2023/10/22 01:23:14;;;;;;;29.70;21.00;;;;;;;14.93;100.00;99059.70;177398;1265;46192;-77
2023/10/22 01:27:17;;;;;;;31.00;22.00;;;;;;;14.88;100.00;99054.55;179135;1265;46072;-81
2023/10/22 01:31:20;;;;;;;31.00;20.40;;;;;;;14.82;100.00;99047.38;178990;1264;43848;-81
2023/10/22 01:35:23;;;;;;;27.70;20.10;;;;;;;14.77;100.00;99039.64;177643;1265;45904;-81
2023/10/22 01:39:26;;;;;;;25.50;17.80;;;;;;;14.74;100.00;99034.84;177380;1264;59413;-83
2023/10/22 01:43:29;;;;;;;27.60;17.10;;;;;;;14.60;100.00;99030.31;177842;1265;46141;-83
2023/10/22 01:47:32;;;;;;;26.70;20.50;;;;;;;14.47;100.00;99029.94;176995;1266;46044;-83
2023/10/22 01:51:35;;;;;;;30.60;19.70;;;;;;;14.44;100.00;99031.00;177201;1264;46000;-82
2023/10/22 01:55:38;;;;;;;27.30;19.70;;;;;;;14.39;100.00;99030.64;178390;1265;44390;-83
2023/10/22 01:59:41;;;;;;;24.70;18.40;;;;;;;14.43;100.00;99036.76;177662;1265;58353;-83
2023/10/22 02:03:47;;;;;;;28.40;20.80;;;;;;;14.46;100.00;99037.13;177383;1265;46110;-82
2023/10/22 02:07:51;;;;;;;;;;;;;;;14.47;100.00;99032.92;176858;1266;225428;-83
2023/10/22 02:11:54;;;;;;;33.20;20.90;;;;;;;14.40;100.00;99016.33;178261;1265;46732;-82
2023/10/22 02:15:57;;;;;;;32.40;22.40;;;;;;;14.23;100.00;99017.39;178989;1265;45876;-82
2023/10/22 02:20:00;;;;;;;36.50;24.10;;;;;;;14.21;100.00;99027.80;178644;1265;58225;-83
2023/10/22 02:24:04;;;;;;;34.10;25.10;;;;;;;14.11;100.00;99023.73;178173;1265;45996;-82
2023/10/22 02:28:07;;;;;;;26.10;21.40;;;;;;;14.07;100.00;99017.12;176699;1264;46014;-83
2023/10/22 02:32:10;;;;;;;29.20;21.40;;;;;;;14.03;100.00;99017.59;177334;1265;46106;-83
2023/10/22 02:36:13;;;;;;;30.80;23.20;;;;;;;14.02;100.00;99023.14;176683;1268;46300;-83
2023/10/22 02:40:16;;;;;;;26.90;20.30;;;;;;;14.09;100.00;99018.27;178005;1265;58303;-80
2023/10/22 02:44:19;;;;;;;28.50;22.40;;;;;;;14.10;100.00;99016.59;177100;1265;46094;-82
2023/10/22 02:48:23;;;;;;;28.60;22.40;;;;;;;14.01;100.00;99020.80;179040;1265;45985;-82
2023/10/22 02:52:26;;;;;;;30.00;22.90;;;;;;;13.90;100.00;99019.52;178397;1265;45925;-82
2023/10/22 02:56:29;;;;;;;30.70;22.90;;;;;;;13.81;100.00;99018.41;177446;1265;46105;-82
2023/10/22 03:00:36;;;;;;;24.60;18.60;;;;;;;13.87;100.00;99036.15;178202;1264;59735;-81
2023/10/22 03:04:39;;;;;;;26.80;21.20;;;;;;;13.99;100.00;99044.25;178956;1268;46248;-82
2023/10/22 03:08:43;;;;;;;27.60;19.70;;;;;;;14.02;100.00;99043.40;177134;1265;46131;-79
2023/10/22 03:12:46;;;;;;;26.20;19.90;;;;;;;13.94;100.00;99046.77;177623;1264;46002;-82
2023/10/22 03:16:49;;;;;;;26.80;19.20;;;;;;;14.01;100.00;99054.33;179448;1264;45895;-82
2023/10/22 03:20:52;;;;;;;27.50;19.20;;;;;;;14.08;100.00;99058.45;178024;1264;59642;-82
2023/10/22 03:24:55;;;;;;;26.40;19.90;;;;;;;14.17;100.00;99053.91;177781;1264;46256;-80
2023/10/22 03:28:58;;;;;;;28.00;19.60;;;;;;;14.19;100.00;99046.09;177774;1264;46236;-82
2023/10/22 03:33:01;;;;;;;26.00;19.80;;;;;;;14.10;100.00;99044.37;176932;1265;46141;-81
2023/10/22 03:37:04;;;;;;;26.90;19.70;;;;;;;14.06;100.00;99048.52;177121;1264;46061;-81
2023/10/22 03:41:07;;;;;;;27.80;18.70;;;;;;;14.05;100.00;99049.91;176983;1265;58390;-81
2023/10/22 03:45:12;;;;;;;22.30;15.50;;;;;;;14.02;100.00;99054.23;176932;1264;45931;-81
2023/10/22 03:49:15;;;;;;;22.10;16.70;;;;;;;14.00;100.00;99053.77;177226;1264;46140;-81
2023/10/22 03:53:18;;;;;;;25.20;16.50;;;;;;;14.03;100.00;99050.88;178039;1264;46857;-82
2023/10/22 03:57:21;;;;;;;25.30;14.80;;;;;;;14.12;100.00;99054.23;178152;1264;48297;-81
2023/10/22 04:01:25;;;;;;;19.10;15.30;;;;;;;14.17;100.00;99046.46;179028;1265;57958;-82
2023/10/22 04:05:28;;;;;;;23.70;15.90;;;;;;;14.23;100.00;99048.44;179465;1265;46288;-79
2023/10/22 04:09:31;;;;;;;20.70;16.80;;;;;;;14.30;100.00;99046.17;180079;1265;44373;-79
2023/10/22 04:13:34;;;;;;;18.10;14.80;;;;;;;14.33;100.00;99041.90;178520;1266;46055;-79
2023/10/22 04:17:37;;;;;;;19.00;15.60;;;;;;;14.35;100.00;99030.20;177649;1264;46173;-79
2023/10/22 04:21:40;;;;;;;23.70;15.70;;;;;;;14.36;100.00;99024.56;179787;1264;58996;-79
2023/10/22 04:25:45;;;;;;;20.70;16.60;;;;;;;14.24;100.00;99027.40;177371;1265;46154;-78
2023/10/22 04:29:49;;;;;;;21.90;17.10;;;;;;;14.22;100.00;99030.09;177109;1266;46014;-79
2023/10/22 04:33:53;;;;;;;23.10;17.20;;;;;;;14.28;100.00;99033.35;177476;1264;46039;-79
2023/10/22 04:37:56;;;;;;;26.60;17.10;;;;;;;14.33;100.00;99037.61;177945;1266;46103;-77
2023/10/22 04:42:00;;;;;;;22.40;16.50;;;;;;;14.41;100.00;99039.09;178385;1264;58908;-79
2023/10/22 04:46:03;;;;;;;30.30;21.80;;;;;;;14.47;100.00;99033.68;179419;1264;46115;-78
2023/10/22 04:50:06;;;;;;;31.20;23.40;;;;;;;14.49;100.00;99032.77;177522;1265;44899;-79
2023/10/22 04:54:10;;;;;;;37.60;24.40;;;;;;;14.50;100.00;99033.35;177535;1265;46188;-78
2023/10/22 04:58:13;;;;;;;38.40;26.30;;;;;;;14.48;100.00;99029.05;179378;1265;43996;-77
2023/10/22 05:02:16;;;;;;;37.80;31.70;;;;;;;14.50;100.00;99033.36;176685;1268;59558;-78
2023/10/22 05:06:20;;;;;;;43.90;33.80;;;;;;;14.48;100.00;99039.63;177073;1265;46143;-80
2023/10/22 05:10:23;;;;;;;43.10;33.10;;;;;;;14.52;100.00;99055.01;177636;1268;46404;-81
2023/10/22 05:14:27;;;;;;;45.70;34.80;;;;;;;14.52;100.00;99062.13;176739;1265;46011;-80
2023/10/22 05:18:31;;;;;;;37.80;31.90;;;;;;;14.49;100.00;99063.77;176855;1265;45996;-80
2023/10/22 05:22:34;;;;;;;29.90;25.80;;;;;;;14.44;100.00;99069.54;177733;1268;59228;-80
2023/10/22 05:26:37;;;;;;;33.40;26.80;;;;;;;14.37;100.00;99075.48;178034;1267;46186;-80
2023/10/22 05:30:40;;;;;;;29.30;22.00;;;;;;;14.30;100.00;99076.16;177772;1264;45629;-79
2023/10/22 05:34:43;;;;;;;29.50;20.80;;;;;;;14.19;100.00;99074.39;177156;1265;46087;-79
2023/10/22 05:38:47;;;;;;;23.60;18.50;;;;;;;14.18;100.00;99074.66;176788;1265;44278;-80
2023/10/22 05:42:50;;;;;;;26.30;20.20;;;;;;;14.08;100.00;99074.33;176714;1265;59037;-81
2023/10/22 05:46:53;;;;;;;23.80;19.80;;;;;;;14.02;100.00;99079.68;177805;1265;46030;-80
2023/10/22 05:50:59;;;;;;;28.50;22.70;;;;;;;14.00;100.00;99084.41;176111;1265;46070;-80
2023/10/22 05:55:02;;;;;;;35.80;23.90;;;;;;;13.94;100.00;99092.52;178383;1266;46138;-80
2023/10/22 05:59:08;;;;;;;32.30;23.50;;;;;;;13.97;100.00;99099.38;176959;1265;46128;-80
2023/10/22 06:03:11;;;;;;;28.60;23.20;;;;;;;14.07;100.00;99107.45;178463;1265;59919;-79
2023/10/22 06:07:14;;;;;;;36.20;25.30;;;;;;;14.18;100.00;99111.23;178002;1265;46169;-80
2023/10/22 06:11:18;;;;;;;40.10;27.20;;;;;;;14.23;100.00;99120.59;176763;1268;46042;-80
2023/10/22 06:15:21;;;;;;;35.70;26.40;;;;;;;14.25;100.00;99127.90;176454;1268;46042;-80
2023/10/22 06:19:24;;;;;;;37.70;23.70;;;;;;;14.29;100.00;99131.01;177606;1264;46001;-79
2023/10/22 06:23:27;;;;;;;24.90;20.70;;;;;;;14.25;100.00;99131.27;177171;1265;58011;-78
2023/10/22 06:27:30;;;;;;;25.20;19.00;;;;;;;14.24;100.00;99134.39;178173;1265;46145;-81
2023/10/22 06:31:33;;;;;;;26.20;20.40;;;;;;;14.14;100.00;99133.79;176964;1265;45997;-78
2023/10/22 06:35:38;;;;;;;28.70;21.50;;;;;;;14.09;100.00;99134.98;178612;1265;46506;-80
2023/10/22 06:39:41;;;;;;;40.20;21.20;;;;;;;14.02;100.00;99134.43;177251;1268;46253;-80
2023/10/22 06:43:45;;;;;;;27.00;22.10;;;;;;;14.02;100.00;99130.34;177494;1267;57934;-80
2023/10/22 06:47:48;;;;;;;27.70;23.20;;;;;;;14.02;100.00;99130.25;177420;1265;46449;-80
2023/10/22 06:51:51;;;;;;;42.60;25.60;;;;;;;13.94;100.00;99128.69;177154;1271;46132;-80
2023/10/22 06:55:56;;;;;;;27.80;23.90;;;;;;;13.91;100.00;99129.98;177181;1265;46008;-80
2023/10/22 06:59:59;;;;;;;36.20;26.50;;;;;;;13.84;100.00;99132.66;178098;1264;46328;-80
2023/10/22 07:04:02;;;;;;;33.30;25.00;;;;;;;13.87;100.00;99130.91;178082;1265;58692;-80
2023/10/22 07:08:08;;;;;;;41.80;26.40;;;;;;;13.86;100.00;99134.98;176921;1265;45611;-79
2023/10/22 07:12:11;;;;;;;40.80;27.30;;;;;;;13.80;100.00;99139.05;177158;1265;46043;-79
2023/10/22 07:16:14;;;;;;;37.40;24.00;;;;;;;13.73;100.00;99139.30;176000;1268;44800;-79
2023/10/22 07:20:17;;;;;;;46.90;28.10;;;;;;;13.72;100.00;99138.73;178015;1265;46024;-79
2023/10/22 07:24:21;;;;;;;43.20;25.20;;;;;;;13.67;100.00;99139.42;178180;1265;57904;-80
2023/10/22 07:28:24;;;;;;;42.50;27.50;;;;;;;13.63;100.00;99146.09;178035;1265;46149;-79
2023/10/22 07:32:27;;;;;;;38.90;24.30;;;;;;;13.66;100.00;99149.12;177482;1264;45989;-80
2023/10/22 07:36:30;;;;;;;34.40;21.80;;;;;;;13.66;100.00;99152.89;177349;1265;46043;-78
2023/10/22 07:40:36;;;;;;;24.90;19.30;;;;;;;13.61;100.00;99163.64;178185;1265;46122;-77
2023/10/22 07:44:39;;;;;;;22.90;15.70;;;;;;;13.64;100.00;99167.71;177707;1265;58245;-79
2023/10/22 07:48:42;;;;;;;14.20;9.10;;;;;;;13.62;100.00;99169.58;178302;1265;46060;-79
2023/10/22 07:52:45;;;;;;;11.90;9.00;;;;;;;13.52;100.00;99180.66;179334;1265;44015;-81
2023/10/22 07:56:48;;;;;;;9.20;7.50;;;;;;;13.44;100.00;99181.84;180160;1264;46066;-80
2023/10/22 08:00:51;;;;;;;6.30;5.70;;;;;;;13.43;100.00;99184.45;178926;1265;46154;-79
2023/10/22 08:04:54;;;;;;;7.10;5.10;;;;;;;13.36;100.00;99188.77;178373;1265;58543;-79
2023/10/22 08:08:57;;;;;;;4.30;3.90;;;;;;;13.26;100.00;99193.23;178105;1265;46123;-80
2023/10/22 08:13:00;;;;;;;4.50;4.10;;;;;;;13.28;100.00;99198.80;177665;1265;46016;-80
2023/10/22 08:17:03;;;;;;;6.30;4.20;;;;;;;13.25;100.00;99208.34;176608;1265;46198;-78
2023/10/22 08:21:06;;;;;;;4.20;3.40;;;;;;;13.24;100.00;99212.69;178570;1265;46058;-79
2023/10/22 08:25:10;;;;;;;2.50;2.30;;;;;;;13.22;100.00;99208.68;177105;1266;59406;-80
2023/10/22 08:29:13;;;;;;;3.60;2.40;;;;;;;13.25;100.00;99218.80;176933;1265;46229;-80
2023/10/22 08:33:16;;;;;;;3.00;2.60;;;;;;;13.23;100.00;99218.29;177111;1268;46015;-78
2023/10/22 08:37:19;;;;;;;3.70;2.80;;;;;;;13.20;100.00;99224.56;179336;1267;45944;-80
2023/10/22 08:41:25;;;;;;;2.90;2.10;;;;;;;13.15;100.00;99232.70;179568;1265;45457;-80
2023/10/22 08:45:28;;;;;;;2.30;2.00;;;;;;;13.08;100.00;99230.64;178405;1268;57920;-80
2023/10/22 08:49:34;;;;;;;4.50;2.60;;;;;;;13.00;100.00;99236.65;178922;1265;46045;-80
2023/10/22 08:53:37;;;;;;;2.20;2.00;;;;;;;13.01;100.00;99235.18;178397;1264;46123;-80
2023/10/22 08:57:41;;;;;;;2.30;1.90;;;;;;;13.00;100.00;99239.52;176970;1265;46139;-80
2023/10/22 09:01:46;;;;;;;2.60;1.70;;;;;;;13.01;100.00;99246.15;179878;1265;46023;-80
2023/10/22 09:05:49;;;;;;;1.80;1.70;;;;;;;12.96;100.00;99252.19;176594;1266;57282;-80
2023/10/22 09:09:52;;;;;;;3.30;1.40;;;;;;;12.98;100.00;99251.81;176930;1264;46167;-80
2023/10/22 09:13:54;;;;;;;4.00;2.10;;;;;;;12.95;100.00;99255.73;175851;1266;46023;-79
2023/10/22 09:18:03;;;;;;;1.70;1.60;;;;;;;12.98;100.00;99262.86;177585;1265;45917;-79
2023/10/22 09:22:19;;;;;;;1.70;1.50;;;;;;;13.02;100.00;99263.86;177865;1265;46109;-79
2023/10/22 09:26:39;;;;;;;3.40;1.80;;;;;;;12.91;100.00;99270.54;176769;1269;58230;-77
2023/10/22 09:30:42;;;;;;;1.00;0.80;;;;;;;12.95;100.00;99274.61;177140;1266;46210;-80
2023/10/22 09:34:45;;;;;;;1.50;1.40;;;;;;;12.97;100.00;99272.00;177193;1265;45984;-79
2023/10/22 09:38:50;;;;;;;1.10;0.90;;;;;;;12.99;100.00;99279.98;179447;1265;44088;-79
2023/10/22 09:42:55;;;;;;;0.80;0.60;;;;;;;12.94;100.00;99287.89;178109;1265;45943;-80
2023/10/22 09:47:02;;;;;;;2.20;1.70;;;;;;;12.93;100.00;99293.34;176514;1268;57957;-79
2023/10/22 09:51:06;;;;;;;1.70;1.60;;;;;;;12.92;100.00;99301.00;179247;1265;44348;-79
2023/10/22 09:55:15;;;;;;;2.80;1.20;;;;;;;12.88;100.00;99305.73;176767;1268;45995;-79
2023/10/22 09:59:22;;;;;;;1.70;1.30;;;;;;;12.82;100.00;99308.03;176514;1265;46031;-79
2023/10/22 10:03:26;;;;;;;1.50;1.40;;;;;;;12.71;100.00;99304.91;177985;1266;46110;-78
2023/10/22 10:07:30;;;;;;;3.10;1.00;;;;;;;12.69;100.00;99317.54;177949;1265;58243;-79
2023/10/22 10:11:34;;;;;;;7.40;1.70;;;;;;;12.66;100.00;99314.61;176828;1267;46250;-79
2023/10/22 10:15:38;;;;;;;2.10;1.30;;;;;;;12.64;100.00;99318.42;177737;1266;46143;-78
2023/10/22 10:19:42;;;;;;;4.00;2.00;;;;;;;12.64;100.00;99324.80;177230;1266;46234;-79
2023/10/22 10:24:15;;;;;;;1.80;1.60;;;;;;;12.61;100.00;99332.95;176834;1268;46022;-78
2023/10/22 10:28:39;;;;;;;2.60;1.70;;;;;;;12.65;100.00;99341.95;176697;1265;59696;-79
2023/10/22 10:32:43;;;;;;;1.30;1.20;;;;;;;12.66;100.00;99347.72;177055;1269;44080;-78
2023/10/22 10:37:14;;;;;;;1.60;1.00;;;;;;;12.72;100.00;99353.38;177111;1268;46253;-79
2023/10/22 10:41:46;;;;;;;;;;;;;;;12.81;100.00;99355.23;175802;1265;46373;-78
2023/10/22 10:46:25;;;;;;;1.70;1.50;;;;;;;12.81;100.00;99361.11;176610;1269;45899;-80
2023/10/22 10:50:28;;;;;;;2.40;1.60;;;;;;;12.85;100.00;99364.98;177609;1268;59579;-79
2023/10/22 10:54:31;;;;;;;2.20;1.90;;;;;;;12.90;100.00;99371.04;175912;1264;46063;-79
2023/10/22 10:58:43;;;;;;;5.30;3.90;;;;;;;13.01;100.00;99369.02;177418;1265;48251;-78
2023/10/22 11:02:51;;;;;;;2.10;1.60;;;;;;;13.08;100.00;99375.20;177530;1267;46024;-79
2023/10/22 11:06:55;;;;;;;2.60;2.30;;;;;;;13.07;100.00;99377.06;176314;1268;46016;-80
2023/10/22 11:11:14;;;;;;;3.00;2.80;;;;;;;13.12;100.00;99380.77;176920;1268;57890;-80
2023/10/22 11:15:17;;;;;;;3.50;3.10;;;;;;;13.16;100.00;99387.32;177735;1267;45996;-78
2023/10/22 11:19:24;;;;;;;3.10;2.80;;;;;;;13.22;100.00;99389.14;176985;1268;46242;-79
2023/10/22 11:23:28;;;;;;;2.40;1.90;;;;;;;13.25;100.00;99391.34;178112;1267;46144;-79
2023/10/22 11:27:32;;;;;;;2.70;2.10;;;;;;;13.33;100.00;99399.95;176980;1265;46137;-80
2023/10/22 11:31:35;;;;;;;4.00;2.10;;;;;;;13.44;100.00;99398.98;177808;1268;57911;-79
2023/10/22 11:35:38;;;;;;;4.50;1.60;;;;;;;13.48;100.00;99402.27;177523;1266;46142;-80
2023/10/22 11:39:42;;;;;;;6.30;2.10;;;;;;;13.48;100.00;99405.23;177361;1266;46212;-79
2023/10/22 11:43:46;;;;;;;3.60;2.30;;;;;;;13.52;100.00;99396.46;177845;1265;43779;-80
2023/10/22 11:47:49;;;;;;;4.30;2.50;;;;;;;13.61;100.00;99408.89;176232;1268;46010;-79
2023/10/22 11:51:53;;;;;;;4.30;3.10;;;;;;;13.62;100.00;99411.25;176199;1268;58723;-78
2023/10/22 11:55:56;;;;;;;3.00;2.30;;;;;;;13.65;100.00;99419.34;177160;1264;44739;-78
2023/10/22 11:59:59;;;;;;;4.00;1.70;;;;;;;13.70;100.00;99422.67;177778;1266;46050;-79
2023/10/22 12:04:03;;;;;;;1.80;1.70;;;;;;;13.69;100.00;99429.40;176987;1267;44754;-79
2023/10/22 12:08:06;;;;;;;3.50;2.40;;;;;;;13.63;100.00;99436.84;176840;1269;44791;-79
2023/10/22 12:12:09;;;;;;;2.30;1.80;;;;;;;13.65;100.00;99439.82;177122;1266;59431;-78
2023/10/22 12:16:12;;;;;;;4.40;3.20;;;;;;;13.61;100.00;99446.42;177262;1267;46240;-78
2023/10/22 12:20:15;;;;;;;3.60;2.20;;;;;;;13.58;100.00;99451.82;177375;1265;46019;-78
2023/10/22 12:24:18;;;;;;;6.20;2.90;;;;;;;13.62;100.00;99454.02;177269;1265;46118;-79
2023/10/22 12:28:29;;;;;;;6.00;3.80;;;;;;;13.64;100.00;99459.03;176738;1269;46025;-77
2023/10/22 12:32:32;;;;;;;4.80;4.00;;;;;;;13.68;100.00;99463.36;176153;1267;58864;-79
2023/10/22 12:36:35;;;;;;;5.00;4.40;;;;;;;13.68;100.00;99469.27;176411;1266;46223;-79
2023/10/22 12:40:38;;;;;;;5.70;3.50;;;;;;;13.69;100.00;99476.60;176663;1267;46120;-78
2023/10/22 12:44:45;;;;;;;5.90;5.20;;;;;;;13.73;100.00;99478.51;177033;1266;45991;-79
2023/10/22 12:48:48;;;;;;;7.50;5.30;;;;;;;13.77;100.00;99488.47;177228;1264;44797;-79
2023/10/22 12:52:51;;;;;;;5.90;5.30;;;;;;;13.85;100.00;99492.02;178290;1269;57895;-79
2023/10/22 12:56:53;;;;;;;5.90;4.20;;;;;;;13.98;100.00;99498.00;177183;1267;46864;-77
2023/10/22 13:00:57;;;;;;;8.40;6.00;;;;;;;14.08;100.00;99502.39;176368;1264;46304;-79
2023/10/22 13:05:03;;;;;;;5.10;3.50;;;;;;;14.15;100.00;99512.14;176490;1267;46298;-79
2023/10/22 13:09:08;;;;;;;10.90;2.90;;;;;;;14.23;100.00;99516.97;177799;1267;46066;-79
2023/10/22 13:13:11;;;;;;;3.60;2.50;;;;;;;14.20;100.00;99528.44;177623;1267;59472;-79
2023/10/22 13:17:15;;;;;;;3.60;2.90;;;;;;;14.22;100.00;99529.00;177745;1267;46121;-78
2023/10/22 13:21:17;;;;;;;2.70;2.40;;;;;;;14.23;100.00;99538.61;177466;1267;46127;-79
2023/10/22 13:25:20;;;;;;;7.00;4.70;;;;;;;14.28;100.00;99535.55;177171;1264;46219;-79
2023/10/22 13:29:23;;;;;;;12.40;9.30;;;;;;;14.35;100.00;99538.52;178318;1268;46047;-80
2023/10/22 13:33:26;;;;;;;15.30;7.70;;;;;;;14.44;100.00;99541.66;178896;1265;58661;-79
2023/10/22 13:37:29;;;;;;;3.70;3.60;;;;;;;14.49;100.00;99547.23;178976;1264;46060;-79
2023/10/22 13:41:32;;;;;;;3.00;2.80;;;;;;;14.47;100.00;99545.55;178620;1268;46279;-79
2023/10/22 13:45:36;;;;;;;3.40;2.10;;;;;;;14.50;100.00;99545.92;179342;1266;44856;-78
2023/10/22 13:49:40;;;;;;;6.90;4.70;;;;;;;14.59;100.00;99552.71;178671;1267;46031;-79
2023/10/22 13:53:43;;;;;;;7.60;3.90;;;;;;;14.66;100.00;99557.61;176249;1268;59519;-79
2023/10/22 13:57:46;;;;;;;4.50;2.20;;;;;;;14.70;100.00;99553.36;178910;1264;44230;-79
2023/10/22 14:01:49;;;;;;;2.50;2.30;;;;;;;14.73;100.00;99563.63;177032;1265;46158;-79
2023/10/22 14:05:53;;;;;;;4.10;2.30;;;;;;;14.85;100.00;99566.30;177718;1266;46070;-79
2023/10/22 14:09:56;;;;;;;3.80;2.30;;;;;;;15.00;100.00;99565.81;176736;1264;312376;-78
2023/10/22 14:14:01;;;;;;;4.00;3.60;;;;;;;15.21;100.00;99569.72;176670;1267;59625;-79
2023/10/22 14:18:05;;;;;;;8.50;4.90;;;;;;;15.36;100.00;99567.14;177350;1265;44249;-79
2023/10/22 14:22:08;;;;;;;9.90;5.60;;;;;;;15.50;100.00;99575.23;178072;1265;46010;-79
2023/10/22 14:26:10;;;;;;;6.50;4.40;;;;;;;15.59;100.00;99575.30;179396;1266;43956;-79
2023/10/22 14:30:14;;;;;;;5.50;4.20;;;;;;;15.71;100.00;99572.89;178257;1266;45293;-79
2023/10/22 14:34:18;;;;;;;8.10;4.70;;;;;;;15.76;100.00;99576.38;177720;1265;57282;-79
2023/10/22 14:38:28;;;;;;;5.70;2.70;;;;;;;15.63;100.00;99581.19;177492;1264;46013;-79
2023/10/22 14:42:31;;;;;;;5.40;3.70;;;;;;;15.69;100.00;99584.77;178252;1264;45951;-79
2023/10/22 14:46:34;;;;;;;5.90;4.00;;;;;;;15.82;100.00;99589.99;178548;1266;44715;-79
2023/10/22 14:50:37;;;;;;;5.90;2.90;;;;;;;15.95;100.00;99590.49;177969;1265;45962;-76
2023/10/22 14:54:40;;;;;;;3.60;2.90;;;;;;;16.08;100.00;99597.12;178176;1265;57491;-79
2023/10/22 14:58:43;;;;;;;3.30;3.00;;;;;;;16.05;100.00;99601.02;178008;1264;46049;-78
2023/10/22 15:02:46;;;;;;;7.20;3.60;;;;;;;16.06;100.00;99605.17;177660;1266;46154;-78
2023/10/22 15:06:50;;;;;;;4.50;3.20;;;;;;;15.95;100.00;99610.84;177473;1264;46049;-78
2023/10/22 15:10:53;;;;;;;6.20;3.80;;;;;;;15.84;100.00;99620.80;177866;1265;45956;-78
2023/10/22 15:14:56;;;;;;;7.60;4.70;;;;;;;15.77;100.00;99622.96;178299;1264;58063;-80
2023/10/22 15:18:59;;;;;;;8.60;4.90;;;;;;;15.72;100.00;99625.00;178695;1267;46131;-80
2023/10/22 15:23:03;;;;;;;9.80;6.10;;;;;;;15.58;100.00;99629.94;177258;1265;46149;-79
2023/10/22 15:27:06;;;;;;;11.40;7.60;;;;;;;15.45;100.00;99632.12;178741;1265;46226;-79
2023/10/22 15:31:11;;;;;;;8.90;3.70;;;;;;;15.28;100.00;99635.27;177006;1269;46140;-78
2023/10/22 15:35:17;;;;;;;6.30;3.40;;;;;;;15.10;100.00;99640.58;177238;1265;59729;-79
2023/10/22 15:39:22;;;;;;;3.90;3.50;;;;;;;14.96;100.00;99644.50;177118;1265;46597;-79
2023/10/22 15:43:25;;;;;;;5.80;2.50;;;;;;;14.85;100.00;99646.79;178065;1266;45897;-79
2023/10/22 15:47:28;;;;;;;10.90;4.10;;;;;;;14.77;100.00;99651.39;178223;1265;46162;-78
2023/10/22 15:51:31;;;;;;;3.70;3.20;;;;;;;14.68;100.00;99653.88;177771;1264;46145;-79
2023/10/22 15:55:35;;;;;;;5.80;3.40;;;;;;;14.64;100.00;99660.42;178016;1266;58031;-76
2023/10/22 15:59:38;;;;;;;5.00;2.60;;;;;;;14.68;100.00;99669.50;179978;1264;46074;-76
2023/10/22 16:03:41;;;;;;;5.00;2.50;;;;;;;14.71;100.00;99676.27;177949;1266;46004;-76
2023/10/22 16:07:45;;;;;;;4.00;2.20;;;;;;;14.69;100.00;99681.26;177401;1264;46111;-76
2023/10/22 16:11:48;;;;;;;5.40;3.30;;;;;;;14.75;100.00;99681.84;178318;1268;46185;-76
2023/10/22 16:15:51;;;;;;;3.30;2.20;;;;;;;14.76;100.00;99684.19;179707;1264;60608;-76
2023/10/22 16:19:56;;;;;;;5.20;2.30;;;;;;;14.78;100.00;99688.89;178457;1264;45976;-76
2023/10/22 16:23:59;;;;;;;11.20;3.80;;;;;;;14.79;100.00;99693.08;177678;1264;46169;-77
2023/10/22 16:28:03;;;;;;;4.90;2.90;;;;;;;14.73;100.00;99694.45;178547;1265;46100;-76
2023/10/22 16:32:06;;;;;;;7.30;2.90;;;;;;;14.70;100.00;99700.11;178790;1264;46031;-76
2023/10/22 16:36:09;;;;;;;6.60;4.00;;;;;;;14.70;100.00;99709.69;178231;1265;59519;-76
2023/10/22 16:40:17;;;;;;;5.70;3.70;;;;;;;14.70;100.00;99716.00;177175;1265;45997;-76
2023/10/22 16:44:20;;;;;;;7.80;5.10;;;;;;;14.72;100.00;99722.61;176880;1268;46130;-76
2023/10/22 16:48:23;;;;;;;7.40;4.70;;;;;;;14.72;100.00;99722.45;179634;1264;46212;-76
2023/10/22 16:52:28;;;;;;;5.70;4.70;;;;;;;14.61;100.00;99724.10;178577;1264;46007;-76
2023/10/22 16:56:31;;;;;;;7.70;3.80;;;;;;;14.52;100.00;99724.92;178303;1264;58240;-76
2023/10/22 17:00:34;;;;;;;5.60;4.70;;;;;;;14.48;100.00;99733.67;177788;1265;46270;-76
2023/10/22 17:04:38;;;;;;;11.40;6.20;;;;;;;14.43;100.00;99739.15;177730;1264;46117;-77
2023/10/22 17:08:41;;;;;;;8.60;7.20;;;;;;;14.39;100.00;99749.39;180645;1264;43779;-77
2023/10/22 17:12:44;;;;;;;14.30;8.80;;;;;;;14.35;100.00;99755.20;178826;1265;48484;-76
2023/10/22 17:16:48;;;;;;;12.50;8.40;;;;;;;14.24;100.00;99766.52;180626;1265;58212;-77
2023/10/22 17:20:51;;;;;;;18.30;9.70;;;;;;;14.13;100.00;99765.69;180589;1265;43876;-77
2023/10/22 17:24:54;;;;;;;10.90;7.50;;;;;;;13.97;100.00;99769.11;180543;1266;43754;-76
2023/10/22 17:28:57;;;;;;;10.90;7.40;;;;;;;13.77;100.00;99773.23;180469;1266;43815;-77
2023/10/22 17:33:01;;;;;;;15.30;8.60;;;;;;;13.61;100.00;99778.52;180058;1265;43717;-76
2023/10/22 17:37:04;;;;;;;9.20;7.90;;;;;;;13.55;100.00;99781.45;180048;1266;58821;-76
2023/10/22 17:41:09;;;;;;;10.30;6.50;;;;;;;13.51;100.00;99782.96;177607;1265;46108;-78
2023/10/22 17:45:13;;;;;;;10.00;6.60;;;;;;;13.48;100.00;99789.99;177620;1265;44611;-78
2023/10/22 17:49:17;;;;;;;11.20;6.20;;;;;;;13.46;100.00;99794.00;177976;1265;44804;-78
2023/10/22 17:53:30;;;;;;;6.60;5.50;;;;;;;13.42;100.00;99798.23;178702;1265;46006;-78
2023/10/22 17:57:34;;;;;;;8.50;5.50;;;;;;;13.38;100.00;99797.23;178641;1264;60821;-78
2023/10/22 18:01:40;;;;;;;7.00;5.80;;;;;;;13.27;100.00;99804.14;179812;1262;85831;-66
2023/10/22 18:06:38;;;;;;;6.00;5.40;;;;;;;13.20;100.00;99807.27;179543;1262;45286;-63
2023/10/22 18:10:58;;;;;;;38.60;7.80;;;;;;;13.09;100.00;99807.61;179631;1263;45952;-65
2023/10/22 18:15:05;;;;;;;10.80;6.70;;;;;;;13.00;100.00;99813.26;179529;1263;46073;-63
2023/10/22 18:19:35;;;;;;;;;;;;;;;13.01;100.00;99814.84;179776;1263;58937;-63
2023/10/22 18:23:45;;;;;;;8.10;4.80;;;;;;;13.04;100.00;99819.58;179806;1263;43457;-68
2023/10/22 18:27:51;;;;;;;5.20;4.20;;;;;;;13.07;100.00;99822.75;179801;1263;44806;-64
2023/10/22 18:31:59;;;;;;;11.80;4.60;;;;;;;13.09;100.00;99826.80;179750;1266;43747;-63